Rhodanus — PGBC — position and weather

sailwx.info

Track history (hours):
 
Tides and Currents Weather Stations Pressure Air Temp Water Temp Dewpoint Dewpoint Depression Visibility Wind Speed Wind Dir Waves Ship Positions

Rhodanus

Last reported at 2014-Nov-19 20:27 UTC. Time now 2014-Nov-21 20:25 UTC.
Position N 35°58' W 005°34'.

Length 89 m; draft 3.6 m.

Type: Cargo ship. MMSI: 245848000.

Date/timePositionNaut miles runAvg speedWind from/ knotsBaromVisibWave heightAir tempDewpointWater temp
2014-Nov-19 20:27N 35°58' W 005°34'  
2014-Nov-12 23:21N 46°05' W 001°48'14 7.7
2014-Nov-12 21:30N 46°06' W 001°27'8 8.7
2014-Nov-12 20:33N 46°03' W 001°16'10 9.6
2014-Nov-12 19:31N 45°57' W 001°04'3 0.1
2014-Nov-10 17:13N 45°56' W 001°01'4 5.8
2014-Nov-10 16:34N 45°58' W 001°05'1010.1
2014-Nov-10 15:33N 46°06' W 001°15'1 0.5
2014-Nov-10 14:32N 46°05' W 001°15'0 0.0
2014-Nov-10 13:32N 46°05' W 001°15'0 0.1
2014-Nov-10 12:29N 46°05' W 001°15'0 0.0
2014-Nov-10 11:32N 46°05' W 001°15'0 0.0
2014-Nov-10 10:32N 46°05' W 001°15'0 0.0
2014-Nov-10 09:32N 46°05' W 001°15'0 0.0
2014-Nov-10 08:32N 46°05' W 001°15'0 0.0
2014-Nov-10 07:32N 46°05' W 001°15'0 0.0
2014-Nov-10 06:32N 46°05' W 001°15'0 0.0
2014-Nov-10 05:32N 46°05' W 001°15'0 0.1
2014-Nov-10 04:33N 46°05' W 001°15'9 9.4
2014-Nov-10 03:33N 46°07' W 001°29'  
Track history (hours):
 
Tides and Currents Weather Stations Pressure Air Temp Water Temp Dewpoint Dewpoint Depression Visibility Wind Speed Wind Dir Waves Ship Positions

Rhodanus

Last reported at 2014-Nov-19 20:27 UTC. Time now 2014-Nov-21 20:25 UTC.
Position N 35°58' W 005°34'.

Length 89 m; draft 3.6 m.

Type: Cargo ship. MMSI: 245848000.

Date/timePositionNaut miles runAvg speedWind from/ knotsBaromVisibWave heightAir tempDewpointWater temp
2014-Nov-19 20:27N 35°58' W 005°34'  
2014-Nov-12 23:21N 46°05' W 001°48'14 7.7
2014-Nov-12 21:30N 46°06' W 001°27'8 8.7
2014-Nov-12 20:33N 46°03' W 001°16'10 9.6
2014-Nov-12 19:31N 45°57' W 001°04'3 0.1
2014-Nov-10 17:13N 45°56' W 001°01'4 5.8
2014-Nov-10 16:34N 45°58' W 001°05'1010.1
2014-Nov-10 15:33N 46°06' W 001°15'1 0.5
2014-Nov-10 14:32N 46°05' W 001°15'0 0.0
2014-Nov-10 13:32N 46°05' W 001°15'0 0.1
2014-Nov-10 12:29N 46°05' W 001°15'0 0.0
2014-Nov-10 11:32N 46°05' W 001°15'0 0.0
2014-Nov-10 10:32N 46°05' W 001°15'0 0.0
2014-Nov-10 09:32N 46°05' W 001°15'0 0.0
2014-Nov-10 08:32N 46°05' W 001°15'0 0.0
2014-Nov-10 07:32N 46°05' W 001°15'0 0.0
2014-Nov-10 06:32N 46°05' W 001°15'0 0.0
2014-Nov-10 05:32N 46°05' W 001°15'0 0.1
2014-Nov-10 04:33N 46°05' W 001°15'9 9.4
2014-Nov-10 03:33N 46°07' W 001°29'  

Dump ship's entire track history